KMCK

Mc Cook Ben Nelson Regional Airport

Mc Cook, Nebraska, USA
METAR KMCK 191453Z AUTO 33014G18KT 7SM CLR 21/17 A2999 RMK AO2 SLP134 T02060167 50002 $
Observed Flight Rules
Aug-19 @ 14:53 UTC (46 minutes ago) Visual Flight Rules
Wind Visibility Clouds
330° at 14 knots
 Gusting to 18 knots
7 miles
  • Clear skies
Temperatures Readings
Current 21°C / 70°F
Dewpoint 17°C / 63°F
Humidity 78%
Altimeter 29.99" Hg
Pressure 1013.4 hPa
Elevation 782
METAR KMCK 191453Z AUTO 33014G18KT 7SM CLR 21/17 A2999 RMK AO2 SLP134 T02060167 50002 $
Observed Flight Rules
Aug-19 @ 14:53 UTC
(46 minutes ago)
VFR
Wind Visibility
330° at 14 knots
 Gusting to 18 knots
7 miles
Clouds
  • Clear skies
Temperature Dewpoint
21°C / 70°F 17°C / 63°F
Humidity Altimeter Pressure
78% 29.99" Hg 1013.4 hPa